»·PEaware :: DAL2378 KSLC-KSAN

DAL2378 :: KSLC-KSAN

FLIGHT INFORMATION

Flight Status: Arrived
Operator:
Delta Air Lines
More flights by this operator :: More flights under this callsign
Pilot: Joe P. (13940)
Aircraft: BOEING 737-700
(B737)
More flights by this aircraft type
Origin: KSLC Salt Lake City Intl
United States
Destination: KSAN San Diego Intl-Lindbergh
United States
More flights between these airports :: More routes between these airports
Route: ZIONZ1 EHK LAKRR Q73 LVELL LUCKI1
File this flight plan on PilotEdge
Remarks: KLAX -PBN / A1B1C1D1L1O1S1 NAV / RNVD1E2A1 DOF / 180825 REG / N389DA EET / KZLA0033 RVR / 200 PER / C
Altitude:
(Current/Filed)
340ft
Speed:
(Current/Filed)
460kts
Departed: 25-Aug-18 08:26 AM
Arrived: 25-Aug-18 09:57 AM
Distance/Time
Traveled:
544nm/1:31
Distance/Time
To Go:
Arrived

Flight Plot

Page will automatically refresh every two minutes.

Flight plan parsing failed; only flown route is shown


Map Options




Map Legend


Flown Route
Filed Route
Departure Airport
Arrival Airport
Navaid (VOR, NDB)
Fix

Horizontal Profiles

Position Reports

Time Latitude Longitude Heading Altitude Ground
Speed
25-Aug-18 07:32 40.788528 -111.980747 282 4235ft 0kts
25-Aug-18 07:33 40.788528 -111.980747 282 4235ft 0kts
25-Aug-18 07:34 40.788528 -111.980747 282 4235ft 0kts
25-Aug-18 07:35 40.788528 -111.980747 282 4235ft 0kts
25-Aug-18 07:36 40.788528 -111.980747 282 4235ft 0kts
25-Aug-18 07:37 40.788528 -111.980747 282 4235ft 0kts
25-Aug-18 07:38 40.788528 -111.980747 282 4235ft 0kts
25-Aug-18 07:39 40.788528 -111.980747 282 4235ft 0kts
25-Aug-18 07:40 40.788528 -111.980747 282 4235ft 0kts
25-Aug-18 07:41 40.788528 -111.980747 282 4235ft 0kts
25-Aug-18 07:42 40.788528 -111.980747 282 4235ft 0kts
25-Aug-18 07:43 40.788528 -111.980747 282 4235ft 0kts
25-Aug-18 07:44 40.788528 -111.980747 282 4235ft 0kts
25-Aug-18 07:45 40.788528 -111.980747 282 4235ft 0kts
25-Aug-18 07:46 40.788528 -111.980747 282 4235ft 0kts
25-Aug-18 07:47 40.788528 -111.980747 282 4235ft 0kts
25-Aug-18 07:48 40.788528 -111.980747 282 4235ft 0kts
25-Aug-18 07:49 40.788528 -111.980747 282 4235ft 0kts
25-Aug-18 07:50 40.788528 -111.980747 282 4235ft 0kts
25-Aug-18 07:51 40.788528 -111.980747 282 4235ft 0kts
25-Aug-18 07:52 40.788528 -111.980747 282 4235ft 0kts
25-Aug-18 07:53 40.788528 -111.980747 282 4235ft 0kts
25-Aug-18 07:54 40.788528 -111.980747 282 4235ft 0kts
25-Aug-18 07:55 40.788528 -111.980747 282 4235ft 0kts
25-Aug-18 07:56 40.788528 -111.980747 282 4235ft 0kts
25-Aug-18 07:57 40.788528 -111.980747 282 4235ft 0kts
25-Aug-18 07:58 40.788528 -111.980747 282 4235ft 0kts
25-Aug-18 07:59 40.788528 -111.980747 282 4235ft 0kts
25-Aug-18 08:00 40.788528 -111.980747 282 4235ft 0kts
25-Aug-18 08:01 40.788528 -111.980747 282 4235ft 0kts
25-Aug-18 08:02 40.788528 -111.980747 282 4234ft 0kts
25-Aug-18 08:03 40.788528 -111.980747 282 4234ft 0kts
25-Aug-18 08:04 40.788528 -111.980747 282 4234ft 0kts
25-Aug-18 08:05 40.788528 -111.980747 282 4234ft 0kts
25-Aug-18 08:06 40.788528 -111.980747 282 4234ft 0kts
25-Aug-18 08:07 40.788528 -111.980747 282 4234ft 0kts
25-Aug-18 08:08 40.788528 -111.980747 282 4234ft 0kts
25-Aug-18 08:09 40.788528 -111.980747 282 4234ft 0kts
25-Aug-18 08:10 40.788528 -111.980747 282 4234ft 0kts
25-Aug-18 08:11 40.788528 -111.980747 282 4234ft 0kts
25-Aug-18 08:12 40.788528 -111.980747 282 4234ft 0kts
25-Aug-18 08:13 40.788513 -111.980657 282 4234ft 2kts
25-Aug-18 08:14 40.788372 -111.979821 282 4234ft 2kts
25-Aug-18 08:15 40.788333 -111.979591 282 4234ft 0kts
25-Aug-18 08:16 40.788333 -111.979591 282 4234ft 0kts
25-Aug-18 08:17 40.788333 -111.979591 282 4234ft 0kts
25-Aug-18 08:18 40.788334 -111.979598 282 4234ft 0kts
25-Aug-18 08:19 40.789726 -111.978926 82 4234ft 6kts
25-Aug-18 08:20 40.791312 -111.977298 354 4234ft 18kts
25-Aug-18 08:21 40.797267 -111.977992 355 4234ft 22kts
25-Aug-18 08:22 40.802898 -111.978666 353 4234ft 22kts
25-Aug-18 08:23 40.807283 -111.979066 30 4234ft 11kts
25-Aug-18 08:24 40.807527 -111.978507 83 4234ft 0kts
25-Aug-18 08:25 40.807540 -111.978187 91 4234ft 6kts
25-Aug-18 08:26 40.806852 -111.976817 171 4234ft 0kts
25-Aug-18 08:27 40.785511 -111.974390 174 4309ft 179kts
25-Aug-18 08:28 40.734858 -111.978567 192 6939ft 207kts
25-Aug-18 08:29 40.668308 -111.997822 192 8391ft 276kts
25-Aug-18 08:30 40.589302 -112.012185 171 11156ft 304kts
25-Aug-18 08:31 40.499599 -111.970620 162 12534ft 369kts
25-Aug-18 08:32 40.397737 -111.946664 180 15103ft 378kts
25-Aug-18 08:33 40.290969 -111.940210 179 17539ft 390kts
25-Aug-18 08:34 40.181585 -111.952310 189 19718ft 401kts
25-Aug-18 08:35 40.069243 -111.969432 189 21677ft 412kts
25-Aug-18 08:36 39.953618 -111.986302 189 23394ft 423kts
25-Aug-18 08:37 39.835065 -112.003564 189 24984ft 431kts
25-Aug-18 08:38 39.715167 -112.021078 190 26486ft 437kts
25-Aug-18 08:39 39.593500 -112.038711 190 27842ft 443kts
25-Aug-18 08:40 39.470133 -112.056509 190 29113ft 446kts
25-Aug-18 08:41 39.354694 -112.101196 208 30820ft 430kts
25-Aug-18 08:42 39.265961 -112.157003 208 32158ft 424kts
25-Aug-18 08:43 39.143120 -112.234114 208 33896ft 416kts
25-Aug-18 08:44 39.056093 -112.288560 208 34174ft 418kts
25-Aug-18 08:45 38.934437 -112.364845 208 34184ft 416kts
25-Aug-18 08:46 38.847747 -112.418906 208 34193ft 415kts
25-Aug-18 08:47 38.743958 -112.483394 208 34201ft 415kts
25-Aug-18 08:48 38.639866 -112.547845 208 34209ft 416kts
25-Aug-18 08:49 38.535447 -112.612292 207 34209ft 416kts
25-Aug-18 08:50 38.431107 -112.676473 207 34206ft 416kts
25-Aug-18 08:51 38.327036 -112.740290 207 34216ft 415kts
25-Aug-18 08:52 38.222651 -112.804099 207 34221ft 415kts
25-Aug-18 08:53 38.118342 -112.867666 207 34233ft 415kts
25-Aug-18 08:54 38.014100 -112.931166 207 34246ft 416kts
25-Aug-18 08:55 37.909481 -112.994491 207 34252ft 417kts
25-Aug-18 08:56 37.804742 -113.057664 206 34248ft 417kts
25-Aug-18 08:57 37.703408 -113.128439 211 34249ft 417kts
25-Aug-18 08:58 37.603281 -113.202228 211 34246ft 417kts
25-Aug-18 08:59 37.502661 -113.275642 210 34231ft 417kts
25-Aug-18 09:00 37.402339 -113.348876 211 34206ft 418kts
25-Aug-18 09:01 37.301518 -113.422060 210 34170ft 418kts
25-Aug-18 09:02 37.200992 -113.494713 210 34130ft 418kts
25-Aug-18 09:03 37.100122 -113.567361 210 34098ft 419kts
25-Aug-18 09:04 36.998735 -113.640147 210 34094ft 419kts
25-Aug-18 09:05 36.897597 -113.712534 210 34093ft 419kts
25-Aug-18 09:06 36.796359 -113.784780 210 34095ft 420kts
25-Aug-18 09:07 36.694701 -113.857126 210 34097ft 420kts
25-Aug-18 09:08 36.592978 -113.929274 210 34099ft 421kts
25-Aug-18 09:09 36.490758 -114.001536 210 34076ft 421kts
25-Aug-18 09:10 36.388775 -114.073412 210 34070ft 422kts
25-Aug-18 09:11 36.286504 -114.145469 210 34065ft 422kts
25-Aug-18 09:12 36.184209 -114.217040 210 34051ft 422kts
25-Aug-18 09:13 36.084587 -114.294321 221 34035ft 423kts
25-Aug-18 09:14 36.003931 -114.399779 226 34030ft 423kts
25-Aug-18 09:15 35.924930 -114.508032 227 34027ft 424kts
25-Aug-18 09:16 35.846448 -114.616497 227 34016ft 424kts
25-Aug-18 09:17 35.767772 -114.724702 227 34014ft 423kts
25-Aug-18 09:18 35.689030 -114.832343 227 34011ft 423kts
25-Aug-18 09:19 35.610419 -114.940007 227 34018ft 423kts
25-Aug-18 09:20 35.530974 -115.047119 222 34011ft 422kts
25-Aug-18 09:21 35.427174 -115.112678 200 34009ft 423kts
25-Aug-18 09:22 35.315979 -115.159639 200 33998ft 423kts
25-Aug-18 09:23 35.204266 -115.206254 200 33997ft 423kts
25-Aug-18 09:24 35.092637 -115.252796 200 33988ft 425kts
25-Aug-18 09:25 34.980438 -115.299342 200 33988ft 425kts
25-Aug-18 09:26 34.868573 -115.345568 200 33994ft 425kts
25-Aug-18 09:27 34.756326 -115.391803 200 34004ft 425kts
25-Aug-18 09:28 34.644291 -115.437825 200 34016ft 425kts
25-Aug-18 09:29 34.532371 -115.483656 200 34026ft 425kts
25-Aug-18 09:30 34.419811 -115.529733 200 34036ft 425kts
25-Aug-18 09:31 34.307781 -115.575291 200 34043ft 425kts
25-Aug-18 09:32 34.195576 -115.621110 202 34023ft 424kts
25-Aug-18 09:33 34.085925 -115.673550 203 34013ft 424kts
25-Aug-18 09:34 33.976045 -115.725411 202 34000ft 424kts
25-Aug-18 09:35 33.866734 -115.777932 203 31580ft 424kts
25-Aug-18 09:36 33.759025 -115.830560 202 29396ft 412kts
25-Aug-18 09:37 33.653132 -115.880099 201 27318ft 403kts
25-Aug-18 09:38 33.549703 -115.928526 204 25278ft 395kts
25-Aug-18 09:39 33.472132 -116.019276 233 23153ft 394kts
25-Aug-18 09:40 33.409938 -116.125859 234 21202ft 387kts
25-Aug-18 09:41 33.347879 -116.229582 226 19277ft 378kts
25-Aug-18 09:42 33.259905 -116.296114 205 17274ft 376kts
25-Aug-18 09:43 33.166314 -116.350500 205 15280ft 370kts
25-Aug-18 09:44 33.075608 -116.403362 205 13380ft 350kts
25-Aug-18 09:45 32.993787 -116.455890 217 11754ft 319kts
25-Aug-18 09:46 32.929665 -116.520682 220 10623ft 292kts
25-Aug-18 09:47 32.868588 -116.582363 220 9534ft 283kts
25-Aug-18 09:48 32.811812 -116.639542 220 9110ft 246kts
25-Aug-18 09:49 32.764159 -116.697668 239 7573ft 257kts
25-Aug-18 09:50 32.730724 -116.769119 241 6627ft 241kts
25-Aug-18 09:51 32.701071 -116.837401 249 5683ft 226kts
25-Aug-18 09:52 32.681225 -116.903628 251 4700ft 199kts
25-Aug-18 09:53 32.676601 -116.963391 287 3823ft 179kts
25-Aug-18 09:54 32.691252 -117.016996 287 3036ft 164kts
25-Aug-18 09:55 32.704236 -117.068925 287 2220ft 157kts
25-Aug-18 09:56 32.716304 -117.118259 287 1297ft 158kts
25-Aug-18 09:57 32.728542 -117.168713 288 262ft 160kts
25-Aug-18 09:58 32.736056 -117.201116 257 23ft 14kts
25-Aug-18 09:59 32.735969 -117.201414 238 23ft 0kts
25-Aug-18 10:00 32.735319 -117.202264 223 23ft 7kts
25-Aug-18 10:01 32.735295 -117.204167 220 23ft 4kts
25-Aug-18 10:02 32.734704 -117.204237 174 23ft 0kts
25-Aug-18 10:03 32.734704 -117.204237 174 23ft 0kts
25-Aug-18 10:04 32.734704 -117.204237 174 23ft 0kts
25-Aug-18 10:05 32.734704 -117.204237 174 23ft 0kts
25-Aug-18 10:06 32.734704 -117.204237 174 23ft 0kts
25-Aug-18 10:07 32.734704 -117.204237 174 23ft 0kts

Navigation Log

Ident Type
Flight plan parsing failed, navigation log unavailable